sensor_id;sensor_type;location;lat;lon;timestamp;P1;durP1;ratioP1;P2;durP2;ratioP2
4527;SDS011;62320;51.520;6.818;2022-12-07T00:01:49;18.55;;;9.18;;
4527;SDS011;62320;51.520;6.818;2022-12-07T00:11:51;18.50;;;8.77;;
4527;SDS011;62320;51.520;6.818;2022-12-07T00:21:53;20.70;;;11.30;;
4527;SDS011;62320;51.520;6.818;2022-12-07T00:31:54;25.60;;;11.77;;
4527;SDS011;62320;51.520;6.818;2022-12-07T00:41:55;25.73;;;12.15;;
4527;SDS011;62320;51.520;6.818;2022-12-07T00:51:57;26.43;;;12.50;;
4527;SDS011;62320;51.520;6.818;2022-12-07T01:01:58;27.07;;;13.27;;
4527;SDS011;62320;51.520;6.818;2022-12-07T01:12:00;30.63;;;14.65;;
4527;SDS011;62320;51.520;6.818;2022-12-07T01:22:01;22.90;;;11.47;;
4527;SDS011;62320;51.520;6.818;2022-12-07T01:32:02;27.93;;;14.43;;
4527;SDS011;62320;51.520;6.818;2022-12-07T01:42:04;29.60;;;14.98;;
4527;SDS011;62320;51.520;6.818;2022-12-07T01:52:24;23.97;;;11.83;;
4527;SDS011;62320;51.520;6.818;2022-12-07T02:02:31;29.30;;;14.03;;
4527;SDS011;62320;51.520;6.818;2022-12-07T02:12:35;27.27;;;13.13;;
4527;SDS011;62320;51.520;6.818;2022-12-07T02:53:31;30.90;;;15.10;;
4527;SDS011;62320;51.520;6.818;2022-12-07T03:03:40;25.77;;;12.70;;
4527;SDS011;62320;51.520;6.818;2022-12-07T03:13:53;28.33;;;12.60;;
4527;SDS011;62320;51.520;6.818;2022-12-07T03:24:02;27.73;;;13.50;;
4527;SDS011;62320;51.520;6.818;2022-12-07T03:34:21;30.37;;;13.07;;
4527;SDS011;62320;51.520;6.818;2022-12-07T03:44:27;28.10;;;13.50;;
4527;SDS011;62320;51.520;6.818;2022-12-07T03:54:34;27.83;;;13.63;;
4527;SDS011;62320;51.520;6.818;2022-12-07T04:04:41;22.55;;;11.68;;
4527;SDS011;62320;51.520;6.818;2022-12-07T04:14:44;27.13;;;11.20;;
4527;SDS011;62320;51.520;6.818;2022-12-07T04:24:45;25.97;;;11.73;;
4527;SDS011;62320;51.520;6.818;2022-12-07T04:34:46;26.75;;;12.32;;
4527;SDS011;62320;51.520;6.818;2022-12-07T04:44:55;26.47;;;12.43;;
4527;SDS011;62320;51.520;6.818;2022-12-07T04:54:56;27.30;;;12.00;;
4527;SDS011;62320;51.520;6.818;2022-12-07T05:04:58;22.55;;;11.13;;
4527;SDS011;62320;51.520;6.818;2022-12-07T05:14:59;28.30;;;11.73;;
4527;SDS011;62320;51.520;6.818;2022-12-07T05:25:00;23.70;;;10.83;;
4527;SDS011;62320;51.520;6.818;2022-12-07T05:35:02;26.23;;;11.82;;
4527;SDS011;62320;51.520;6.818;2022-12-07T05:45:04;28.65;;;12.02;;
4527;SDS011;62320;51.520;6.818;2022-12-07T05:55:06;19.93;;;9.77;;
4527;SDS011;62320;51.520;6.818;2022-12-07T06:05:08;21.83;;;10.17;;
4527;SDS011;62320;51.520;6.818;2022-12-07T06:15:09;26.88;;;11.32;;
4527;SDS011;62320;51.520;6.818;2022-12-07T06:25:11;22.87;;;10.20;;
4527;SDS011;62320;51.520;6.818;2022-12-07T06:35:12;22.30;;;9.70;;
4527;SDS011;62320;51.520;6.818;2022-12-07T06:45:14;21.55;;;9.43;;
4527;SDS011;62320;51.520;6.818;2022-12-07T06:55:15;18.73;;;8.47;;
4527;SDS011;62320;51.520;6.818;2022-12-07T07:05:16;22.70;;;9.87;;
4527;SDS011;62320;51.520;6.818;2022-12-07T07:15:18;20.33;;;8.95;;
4527;SDS011;62320;51.520;6.818;2022-12-07T07:25:19;21.15;;;9.50;;
4527;SDS011;62320;51.520;6.818;2022-12-07T07:35:21;19.03;;;8.73;;
4527;SDS011;62320;51.520;6.818;2022-12-07T07:45:23;19.80;;;7.13;;
4527;SDS011;62320;51.520;6.818;2022-12-07T07:55:25;18.55;;;6.85;;
4527;SDS011;62320;51.520;6.818;2022-12-07T08:05:26;18.67;;;6.03;;
4527;SDS011;62320;51.520;6.818;2022-12-07T08:15:29;16.90;;;6.57;;
4527;SDS011;62320;51.520;6.818;2022-12-07T08:25:32;18.02;;;7.50;;
4527;SDS011;62320;51.520;6.818;2022-12-07T08:35:33;16.07;;;7.07;;
4527;SDS011;62320;51.520;6.818;2022-12-07T08:45:35;14.63;;;6.47;;
4527;SDS011;62320;51.520;6.818;2022-12-07T08:55:37;17.48;;;6.90;;
4527;SDS011;62320;51.520;6.818;2022-12-07T09:05:38;16.52;;;7.05;;
4527;SDS011;62320;51.520;6.818;2022-12-07T09:15:39;14.97;;;6.23;;
4527;SDS011;62320;51.520;6.818;2022-12-07T09:25:41;10.57;;;4.20;;
4527;SDS011;62320;51.520;6.818;2022-12-07T09:35:46;13.60;;;5.25;;
4527;SDS011;62320;51.520;6.818;2022-12-07T09:45:52;14.23;;;5.23;;
4527;SDS011;62320;51.520;6.818;2022-12-07T09:55:56;15.73;;;6.40;;
4527;SDS011;62320;51.520;6.818;2022-12-07T10:05:57;17.73;;;6.22;;
4527;SDS011;62320;51.520;6.818;2022-12-07T10:15:59;13.20;;;6.30;;
4527;SDS011;62320;51.520;6.818;2022-12-07T10:36:35;11.15;;;4.78;;
4527;SDS011;62320;51.520;6.818;2022-12-07T10:57:31;16.47;;;4.50;;
4527;SDS011;62320;51.520;6.818;2022-12-07T11:07:55;11.67;;;3.83;;
4527;SDS011;62320;51.520;6.818;2022-12-07T11:28:56;9.00;;;2.90;;
4527;SDS011;62320;51.520;6.818;2022-12-07T11:39:03;15.67;;;3.23;;
4527;SDS011;62320;51.520;6.818;2022-12-07T11:49:18;7.65;;;2.33;;
4527;SDS011;62320;51.520;6.818;2022-12-07T11:59:24;6.77;;;2.17;;
4527;SDS011;62320;51.520;6.818;2022-12-07T12:09:35;10.33;;;4.00;;
4527;SDS011;62320;51.520;6.818;2022-12-07T12:20:06;10.80;;;3.60;;
4527;SDS011;62320;51.520;6.818;2022-12-07T12:30:53;16.73;;;3.75;;
4527;SDS011;62320;51.520;6.818;2022-12-07T12:41:04;11.40;;;4.43;;
4527;SDS011;62320;51.520;6.818;2022-12-07T13:01:41;8.57;;;3.65;;
4527;SDS011;62320;51.520;6.818;2022-12-07T13:11:44;8.60;;;2.93;;
4527;SDS011;62320;51.520;6.818;2022-12-07T13:21:47;7.67;;;2.90;;
4527;SDS011;62320;51.520;6.818;2022-12-07T13:31:49;11.88;;;3.55;;
4527;SDS011;62320;51.520;6.818;2022-12-07T13:41:53;12.07;;;3.27;;
4527;SDS011;62320;51.520;6.818;2022-12-07T13:52:13;8.13;;;2.37;;
4527;SDS011;62320;51.520;6.818;2022-12-07T14:02:20;12.30;;;2.80;;
4527;SDS011;62320;51.520;6.818;2022-12-07T14:12:23;9.23;;;2.75;;
4527;SDS011;62320;51.520;6.818;2022-12-07T14:22:36;9.03;;;2.93;;
4527;SDS011;62320;51.520;6.818;2022-12-07T14:32:39;6.80;;;2.30;;
4527;SDS011;62320;51.520;6.818;2022-12-07T14:42:41;8.82;;;2.15;;
4527;SDS011;62320;51.520;6.818;2022-12-07T14:52:48;6.93;;;2.40;;
4527;SDS011;62320;51.520;6.818;2022-12-07T15:03:19;8.73;;;2.30;;
4527;SDS011;62320;51.520;6.818;2022-12-07T15:13:21;9.88;;;2.45;;
4527;SDS011;62320;51.520;6.818;2022-12-07T15:23:41;10.67;;;2.70;;
4527;SDS011;62320;51.520;6.818;2022-12-07T15:33:43;9.37;;;3.13;;
4527;SDS011;62320;51.520;6.818;2022-12-07T15:43:45;8.25;;;2.50;;
4527;SDS011;62320;51.520;6.818;2022-12-07T15:54:05;7.25;;;2.95;;
4527;SDS011;62320;51.520;6.818;2022-12-07T16:04:07;10.43;;;3.30;;
4527;SDS011;62320;51.520;6.818;2022-12-07T16:14:08;7.73;;;2.60;;
4527;SDS011;62320;51.520;6.818;2022-12-07T16:24:10;11.60;;;3.38;;
4527;SDS011;62320;51.520;6.818;2022-12-07T16:34:11;6.63;;;2.67;;
4527;SDS011;62320;51.520;6.818;2022-12-07T16:44:12;7.90;;;2.80;;
4527;SDS011;62320;51.520;6.818;2022-12-07T16:54:14;6.93;;;2.40;;
4527;SDS011;62320;51.520;6.818;2022-12-07T17:04:16;12.80;;;3.60;;
4527;SDS011;62320;51.520;6.818;2022-12-07T17:14:17;8.20;;;2.87;;
4527;SDS011;62320;51.520;6.818;2022-12-07T17:24:37;8.18;;;3.15;;
4527;SDS011;62320;51.520;6.818;2022-12-07T17:34:39;8.15;;;3.25;;
4527;SDS011;62320;51.520;6.818;2022-12-07T17:44:41;6.63;;;2.70;;
4527;SDS011;62320;51.520;6.818;2022-12-07T17:54:42;6.43;;;2.50;;
4527;SDS011;62320;51.520;6.818;2022-12-07T18:04:44;5.30;;;2.30;;
4527;SDS011;62320;51.520;6.818;2022-12-07T18:14:47;6.67;;;2.53;;
4527;SDS011;62320;51.520;6.818;2022-12-07T18:24:50;8.23;;;3.37;;
4527;SDS011;62320;51.520;6.818;2022-12-07T18:34:52;9.68;;;3.45;;
4527;SDS011;62320;51.520;6.818;2022-12-07T18:44:54;10.90;;;4.40;;
4527;SDS011;62320;51.520;6.818;2022-12-07T18:54:55;10.30;;;4.47;;
4527;SDS011;62320;51.520;6.818;2022-12-07T19:04:57;12.60;;;5.30;;
4527;SDS011;62320;51.520;6.818;2022-12-07T19:14:58;13.20;;;5.57;;
4527;SDS011;62320;51.520;6.818;2022-12-07T19:24:59;13.10;;;5.60;;
4527;SDS011;62320;51.520;6.818;2022-12-07T19:35:01;13.83;;;5.57;;
4527;SDS011;62320;51.520;6.818;2022-12-07T19:45:03;13.48;;;5.60;;
4527;SDS011;62320;51.520;6.818;2022-12-07T19:55:06;14.90;;;7.23;;
4527;SDS011;62320;51.520;6.818;2022-12-07T20:05:08;11.30;;;5.47;;
4527;SDS011;62320;51.520;6.818;2022-12-07T20:15:10;14.00;;;5.68;;
4527;SDS011;62320;51.520;6.818;2022-12-07T20:25:11;14.30;;;6.67;;
4527;SDS011;62320;51.520;6.818;2022-12-07T20:35:13;17.63;;;8.10;;
4527;SDS011;62320;51.520;6.818;2022-12-07T20:45:14;13.55;;;6.40;;
4527;SDS011;62320;51.520;6.818;2022-12-07T20:55:15;16.27;;;7.80;;
4527;SDS011;62320;51.520;6.818;2022-12-07T21:05:17;16.93;;;7.40;;
4527;SDS011;62320;51.520;6.818;2022-12-07T21:15:19;15.60;;;7.67;;
4527;SDS011;62320;51.520;6.818;2022-12-07T21:25:21;15.63;;;6.95;;
4527;SDS011;62320;51.520;6.818;2022-12-07T21:35:23;19.33;;;9.57;;
4527;SDS011;62320;51.520;6.818;2022-12-07T21:45:24;21.77;;;8.93;;
4527;SDS011;62320;51.520;6.818;2022-12-07T21:55:26;13.93;;;7.60;;
4527;SDS011;62320;51.520;6.818;2022-12-07T22:05:27;13.17;;;6.10;;
4527;SDS011;62320;51.520;6.818;2022-12-07T22:15:29;14.10;;;7.40;;
4527;SDS011;62320;51.520;6.818;2022-12-07T22:25:30;10.23;;;4.72;;
4527;SDS011;62320;51.520;6.818;2022-12-07T22:35:31;13.43;;;4.90;;
4527;SDS011;62320;51.520;6.818;2022-12-07T22:45:33;18.53;;;5.43;;
4527;SDS011;62320;51.520;6.818;2022-12-07T22:55:37;11.50;;;5.17;;
4527;SDS011;62320;51.520;6.818;2022-12-07T23:05:48;15.07;;;7.40;;
4527;SDS011;62320;51.520;6.818;2022-12-07T23:15:50;21.67;;;10.37;;
4527;SDS011;62320;51.520;6.818;2022-12-07T23:25:51;20.67;;;10.57;;
4527;SDS011;62320;51.520;6.818;2022-12-07T23:35:53;21.75;;;10.95;;
4527;SDS011;62320;51.520;6.818;2022-12-07T23:45:54;22.67;;;10.20;;
4527;SDS011;62320;51.520;6.818;2022-12-07T23:55:55;24.20;;;10.47;;
